Comfort, Texas
Current Conditions -  °F | °C
As of 7:55 AM on Wednesday 26 Nov 2014 (Local Time) from KERV Reporting Station
Clear Clear  
Wind Chill: 32°   Ceiling: Unl
Heat Index: 32°   Visibility: 10mi
Dew Point: 30°   Wind: 3mph
Humidity: 90%   Direction: 330°NNW
Pressure: 30.23"   Gusts: NA
Location:  29.97°N, 98.91°W
Report Text: KERV 261355Z AUTO 33003KT 10SM CLR 00/M01 A3023 RMK AO2 T00011013
Loading
Personal Weather Stations






























Interactive Weather Map New forecast layout! Learn more

10-Day Weather Forecast

Advertisements
Track Severe Weather on mobile